Portada
METAR-TAF:

METAR-TAF

Aeroports :

Conyac, França

latitud: 45-40N, longitud: 000-19W, altitud: 30 m

Observació

L'informe es va fer fa 26 minuts, a les 04:30 UTC
Vent calma
Temperatura 3°C
Humitat 87%
Pressió 1032 hPa
Visibilitat 10 km o més
sense núvols per sota de 1500 mi sense presència de cumulonimbus.

METAR: LFBG 200430Z AUTO 00000KT CAVOK 03/01 Q1032

Hora: 05:56 (04:56 UTC)

Pronòstic

L'informe es va fer fa 8 hores i 56 minuts, a les 20:00 UTC
Pronòstic vàlid del 19 a les 21 UTC al 20 a les 21 UTC
Vent 5 kt del Nord/Nord-Est
Visibilitat 10 km o més
sense núvols per sota de 1500 mi sense presència de cumulonimbus.
Probabilitat 40% :
Temporalment
l' 20 a les 00 UTC al 20 a les 08 UTC
Visibilitat: 0800 m
boira en bancs
Temporalment
l' 20 a les 11 UTC al 20 a les 15 UTC
Núvols disperses a una alçada de 2000 ft

TAF: LFBG 192000Z 1921/2021 02005KT CAVOK PROB40 TEMPO 2000/2008 0800 BCFG TEMPO 2011/2015 SCT020

Observacions i pronòstics meteorològics de més de 4000 aeroports (METAR i TAF).

Les estacions disponibles són els punts grocs i vermells al mapa.

Posi el ratolí al punt desitjat per veure el nom de l'estació.

Feu clic per veure les observacions i els pronòstics meteorològics.

Per canviar el mapa: feu clic els botons verds amb una creu de color negre per apropar; al botó verd amb un guió per allunyar la imatge; o en les fletxes verdes per a mapes adjacents.


METAR-TAF: